createdAt,value
2018-05-29T00:01:05.149Z,21.60
2018-05-29T00:03:32.689Z,21.66
2018-05-29T00:06:00.212Z,21.56
2018-05-29T00:08:27.757Z,21.51
2018-05-29T00:10:55.632Z,21.31
2018-05-29T00:13:23.212Z,21.30
2018-05-29T00:15:50.746Z,21.26
2018-05-29T00:18:18.265Z,21.24
2018-05-29T00:20:45.810Z,21.33
2018-05-29T00:23:13.371Z,21.36
2018-05-29T00:25:41.138Z,21.43
2018-05-29T00:28:08.685Z,21.35
2018-05-29T00:30:36.212Z,21.33
2018-05-29T00:33:03.772Z,21.17
2018-05-29T00:35:31.304Z,21.15
2018-05-29T00:37:59.192Z,21.31
2018-05-29T00:40:26.728Z,21.32
2018-05-29T00:42:54.260Z,21.30
2018-05-29T00:45:21.807Z,21.34
2018-05-29T00:47:49.331Z,21.37
2018-05-29T00:50:17.028Z,21.16
2018-05-29T00:52:44.549Z,21.17
2018-05-29T00:58:16.036Z,21.19
2018-05-29T01:00:43.917Z,21.20
2018-05-29T01:03:11.448Z,21.14
2018-05-29T01:05:38.976Z,21.18
2018-05-29T01:08:06.533Z,21.08
2018-05-29T01:10:34.072Z,21.23
2018-05-29T01:13:01.816Z,21.29
2018-05-29T01:15:29.337Z,21.30
2018-05-29T01:17:56.856Z,21.16
2018-05-29T01:20:24.401Z,21.08
2018-05-29T01:22:51.928Z,20.76
2018-05-29T01:25:19.712Z,20.72
2018-05-29T01:27:47.241Z,20.66
2018-05-29T01:30:14.766Z,20.51
2018-05-29T01:32:42.316Z,20.49
2018-05-29T01:35:09.841Z,20.38
2018-05-29T01:37:37.925Z,20.30
2018-05-29T01:40:05.453Z,20.38
2018-05-29T01:42:32.985Z,20.31
2018-05-29T01:45:00.536Z,20.28
2018-05-29T01:47:28.055Z,20.24
2018-05-29T01:49:55.820Z,20.23
2018-05-29T01:52:23.861Z,19.87
2018-05-29T01:54:51.396Z,19.98
2018-05-29T01:57:18.956Z,19.96
2018-05-29T01:59:46.486Z,20.10
2018-05-29T02:02:14.252Z,19.99
2018-05-29T02:04:41.773Z,20.00
2018-05-29T02:07:09.299Z,20.01
2018-05-29T02:09:36.857Z,19.88
2018-05-29T02:12:04.382Z,19.94
2018-05-29T02:14:32.141Z,20.00
2018-05-29T02:16:59.660Z,19.94
2018-05-29T02:19:27.268Z,20.01
2018-05-29T02:21:54.817Z,19.75
2018-05-29T02:24:22.345Z,19.75
2018-05-29T02:26:49.903Z,19.75
2018-05-29T02:29:17.444Z,19.81
2018-05-29T02:31:44.978Z,19.91
2018-05-29T02:34:12.529Z,19.97
2018-05-29T02:36:40.059Z,19.92
2018-05-29T02:39:07.626Z,20.15
2018-05-29T02:41:35.161Z,20.33
2018-05-29T02:44:02.695Z,20.24
2018-05-29T02:46:30.235Z,20.31
2018-05-29T02:48:57.761Z,20.22
2018-05-29T02:51:25.334Z,20.20
2018-05-29T02:53:52.863Z,20.28
2018-05-29T02:56:20.395Z,20.02
2018-05-29T02:58:47.953Z,20.13
2018-05-29T03:01:15.509Z,20.11
2018-05-29T03:03:43.234Z,20.15
2018-05-29T03:06:10.769Z,20.12
2018-05-29T03:08:38.300Z,20.17
2018-05-29T03:11:05.845Z,20.23
2018-05-29T03:13:33.372Z,20.07
2018-05-29T03:16:00.948Z,20.24
2018-05-29T03:18:28.469Z,20.31
2018-05-29T03:20:56.184Z,20.32
2018-05-29T03:23:23.726Z,20.34
2018-05-29T03:25:51.258Z,20.41
2018-05-29T03:28:18.815Z,20.41
2018-05-29T03:30:46.341Z,20.43
2018-05-29T03:33:13.866Z,20.46
2018-05-29T03:35:42.531Z,20.40
2018-05-29T03:38:10.064Z,20.40
2018-05-29T03:40:37.831Z,20.38
2018-05-29T03:43:05.360Z,20.36
2018-05-29T03:45:32.885Z,20.39
2018-05-29T03:48:00.433Z,20.51
2018-05-29T03:50:27.952Z,20.44
2018-05-29T03:52:55.526Z,20.52
2018-05-29T03:55:23.048Z,20.58
2018-05-29T03:57:50.576Z,20.67
2018-05-29T04:00:18.303Z,20.75
2018-05-29T04:02:45.854Z,20.80
2018-05-29T04:05:14.385Z,20.81
2018-05-29T04:07:41.948Z,20.86
2018-05-29T04:10:09.465Z,20.86
2018-05-29T04:12:36.984Z,20.82
2018-05-29T04:15:04.545Z,20.77
2018-05-29T04:17:32.077Z,20.70
2018-05-29T04:19:59.678Z,20.66
2018-05-29T04:22:31.720Z,20.66
2018-05-29T04:25:00.500Z,20.66
2018-05-29T04:27:28.072Z,20.59
2018-05-29T04:29:55.591Z,20.58
2018-05-29T04:32:23.117Z,20.58
2018-05-29T04:34:50.670Z,20.57
2018-05-29T04:37:18.200Z,20.36
2018-05-29T04:39:45.736Z,20.18
2018-05-29T04:42:13.336Z,20.36
2018-05-29T04:44:40.885Z,20.44
2018-05-29T04:47:08.440Z,20.43
2018-05-29T04:49:35.983Z,20.35
2018-05-29T04:52:03.517Z,20.16
2018-05-29T04:54:31.050Z,20.38
2018-05-29T04:56:58.605Z,20.40
2018-05-29T04:59:26.136Z,20.57
2018-05-29T05:01:53.663Z,20.66
2018-05-29T05:04:21.233Z,20.68
2018-05-29T05:06:48.808Z,20.58
2018-05-29T05:09:16.331Z,20.74
2018-05-29T05:11:43.880Z,20.89
2018-05-29T05:14:11.405Z,21.02
2018-05-29T05:16:38.955Z,21.20
2018-05-29T05:19:06.513Z,21.37
2018-05-29T05:21:34.053Z,21.43
2018-05-29T05:24:01.573Z,21.46
2018-05-29T05:26:29.123Z,21.40
2018-05-29T05:28:56.669Z,21.70
2018-05-29T05:31:24.217Z,22.02
2018-05-29T05:33:51.760Z,22.28
2018-05-29T05:36:19.285Z,22.52
2018-05-29T05:38:46.833Z,22.61
2018-05-29T05:41:14.362Z,22.52
2018-05-29T05:43:41.886Z,22.53
2018-05-29T05:46:09.491Z,22.52
2018-05-29T05:48:36.989Z,22.60
2018-05-29T05:51:04.537Z,22.72
2018-05-29T05:53:32.096Z,22.90
2018-05-29T05:55:59.684Z,23.06
2018-05-29T05:58:27.324Z,23.10
2018-05-29T06:00:54.809Z,23.16
2018-05-29T06:03:22.356Z,23.19
2018-05-29T06:05:49.910Z,23.43
2018-05-29T06:08:17.877Z,23.43
2018-05-29T06:10:45.451Z,23.60
2018-05-29T06:13:13.022Z,23.42
2018-05-29T06:15:40.612Z,23.63
2018-05-29T06:18:09.239Z,23.81
2018-05-29T06:20:36.756Z,24.06
2018-05-29T06:23:04.316Z,23.99
2018-05-29T06:25:31.849Z,23.96
2018-05-29T06:27:59.675Z,24.05
2018-05-29T06:30:27.211Z,24.37
2018-05-29T06:32:54.743Z,24.72
2018-05-29T06:35:22.301Z,24.98
2018-05-29T06:37:49.843Z,25.29
2018-05-29T06:40:17.560Z,25.63
2018-05-29T06:42:45.098Z,25.70
2018-05-29T06:45:12.685Z,26.25
2018-05-29T06:47:40.227Z,26.71
2018-05-29T06:50:08.325Z,27.35
2018-05-29T06:52:36.107Z,28.05
2018-05-29T06:55:03.615Z,27.80
2018-05-29T06:57:31.144Z,27.97
2018-05-29T06:59:58.692Z,27.67
2018-05-29T07:02:26.221Z,28.18
2018-05-29T07:04:54.129Z,28.42
2018-05-29T07:07:21.658Z,28.43
2018-05-29T07:09:50.135Z,29.15
2018-05-29T07:12:17.689Z,29.36
2018-05-29T07:14:45.216Z,29.41
2018-05-29T07:17:13.200Z,29.38
2018-05-29T07:19:40.724Z,29.16
2018-05-29T07:22:08.252Z,28.96
2018-05-29T07:24:36.837Z,28.37
2018-05-29T07:27:04.369Z,28.10
2018-05-29T07:29:33.065Z,28.20
2018-05-29T07:32:00.599Z,28.25
2018-05-29T07:34:28.163Z,28.41
2018-05-29T07:36:55.712Z,28.46
2018-05-29T07:39:23.249Z,28.04
2018-05-29T07:41:50.902Z,28.20
2018-05-29T07:44:18.437Z,28.18
2018-05-29T07:46:45.956Z,28.19
2018-05-29T07:49:13.513Z,28.30
2018-05-29T07:51:41.100Z,28.41
2018-05-29T07:54:08.653Z,28.37
2018-05-29T07:56:36.173Z,28.53
2018-05-29T07:59:03.704Z,28.49
2018-05-29T08:01:31.262Z,28.74
2018-05-29T08:03:59.740Z,28.65
2018-05-29T08:06:27.589Z,29.12
2018-05-29T08:08:55.121Z,29.09
2018-05-29T08:11:22.636Z,29.47
2018-05-29T08:13:50.181Z,29.71
2018-05-29T08:16:17.698Z,30.24
2018-05-29T08:18:45.243Z,29.72
2018-05-29T08:21:12.760Z,30.02
2018-05-29T08:23:40.285Z,29.91
2018-05-29T08:26:07.825Z,29.61
2018-05-29T08:28:35.339Z,29.40
2018-05-29T08:31:03.093Z,28.99
2018-05-29T08:33:30.605Z,29.20
2018-05-29T08:35:58.128Z,28.69
2018-05-29T08:38:25.682Z,28.78
2018-05-29T08:40:53.206Z,28.88
2018-05-29T08:43:21.255Z,28.87
2018-05-29T08:45:49.863Z,28.74
2018-05-29T08:48:17.375Z,28.72
2018-05-29T08:50:44.921Z,28.74
2018-05-29T08:53:12.440Z,28.24
2018-05-29T08:55:39.994Z,28.64
2018-05-29T08:58:07.532Z,28.77
2018-05-29T09:00:35.355Z,28.77
2018-05-29T09:03:02.915Z,28.81
2018-05-29T09:05:30.442Z,28.62
2018-05-29T09:07:58.716Z,28.85
2018-05-29T09:10:26.237Z,29.44
2018-05-29T09:12:53.761Z,29.71
2018-05-29T09:15:21.369Z,30.07
2018-05-29T09:17:48.862Z,30.15
2018-05-29T09:20:16.677Z,30.04
2018-05-29T09:22:44.213Z,30.15
2018-05-29T09:25:11.741Z,30.65
2018-05-29T09:27:39.290Z,31.01
2018-05-29T09:30:06.854Z,31.15
2018-05-29T09:32:34.560Z,31.09
2018-05-29T09:35:02.078Z,31.20
2018-05-29T09:37:29.625Z,30.73
2018-05-29T09:39:57.173Z,30.54
2018-05-29T09:42:24.690Z,30.29
2018-05-29T09:44:52.253Z,30.54
2018-05-29T09:47:19.836Z,30.85
2018-05-29T09:49:47.384Z,31.27
2018-05-29T09:52:14.947Z,32.11
2018-05-29T09:54:42.468Z,33.65
2018-05-29T09:57:10.561Z,35.38
2018-05-29T09:59:38.094Z,35.98
2018-05-29T10:02:05.627Z,35.23
2018-05-29T10:04:33.181Z,36.35
2018-05-29T10:07:00.767Z,36.29
2018-05-29T10:09:28.828Z,37.51
2018-05-29T10:11:56.352Z,38.26
2018-05-29T10:14:23.876Z,38.62
2018-05-29T10:16:51.429Z,37.97
2018-05-29T10:19:18.988Z,38.84
2018-05-29T10:21:46.540Z,39.40
2018-05-29T10:24:14.054Z,39.89
2018-05-29T10:26:41.568Z,41.79
2018-05-29T10:29:09.112Z,41.06
2018-05-29T10:31:36.659Z,39.91
2018-05-29T10:34:04.285Z,38.33
2018-05-29T10:36:31.813Z,36.88
2018-05-29T10:38:59.364Z,36.40
2018-05-29T10:41:26.914Z,35.97
2018-05-29T10:43:54.433Z,35.99
2018-05-29T10:46:22.301Z,35.93
2018-05-29T10:48:49.821Z,35.84
2018-05-29T10:51:17.344Z,35.55
2018-05-29T10:53:44.900Z,34.94
2018-05-29T10:56:12.429Z,34.52
2018-05-29T10:58:40.101Z,34.32
2018-05-29T11:01:07.619Z,34.19
2018-05-29T11:03:35.149Z,34.55
2018-05-29T11:06:02.700Z,33.69
2018-05-29T11:08:30.232Z,33.93
2018-05-29T11:10:58.403Z,34.00
2018-05-29T11:13:26.277Z,34.32
2018-05-29T11:15:53.793Z,33.33
2018-05-29T11:18:21.342Z,33.39
2018-05-29T11:20:48.867Z,33.33
2018-05-29T11:23:16.624Z,33.45
2018-05-29T11:25:44.149Z,34.18
2018-05-29T11:28:11.669Z,34.55
2018-05-29T11:30:39.213Z,33.45
2018-05-29T11:33:06.724Z,33.13
2018-05-29T11:35:34.271Z,32.75
2018-05-29T11:38:01.787Z,32.40
2018-05-29T11:40:29.434Z,32.17
2018-05-29T11:42:56.988Z,32.55
2018-05-29T11:45:24.530Z,32.73
2018-05-29T11:47:52.216Z,32.37
2018-05-29T11:50:19.737Z,32.26
2018-05-29T11:52:47.260Z,32.56
2018-05-29T11:55:14.808Z,31.76
2018-05-29T11:57:42.320Z,31.80
2018-05-29T12:00:10.008Z,31.52
2018-05-29T12:02:37.530Z,31.60
2018-05-29T12:05:05.160Z,31.97
2018-05-29T12:07:32.707Z,32.18
2018-05-29T12:10:00.773Z,32.24
2018-05-29T12:12:28.340Z,32.57
2018-05-29T12:14:55.862Z,32.63
2018-05-29T12:17:24.169Z,33.55
2018-05-29T12:19:51.756Z,34.16
2018-05-29T12:22:19.326Z,35.49
2018-05-29T12:24:46.841Z,36.43
2018-05-29T12:27:14.368Z,38.50
2018-05-29T12:29:41.941Z,38.57
2018-05-29T12:32:09.469Z,37.24
2018-05-29T12:34:37.000Z,35.50
2018-05-29T12:37:04.557Z,33.89
2018-05-29T12:39:32.071Z,32.45
2018-05-29T12:41:59.777Z,31.49
2018-05-29T12:44:27.323Z,30.24
2018-05-29T12:46:54.847Z,29.44
2018-05-29T12:49:22.396Z,28.85
2018-05-29T12:51:49.920Z,28.56
2018-05-29T12:54:17.474Z,27.73
2018-05-29T12:56:45.005Z,27.80
2018-05-29T12:59:12.546Z,27.32
2018-05-29T13:01:40.121Z,27.25
2018-05-29T13:04:07.645Z,27.07
2018-05-29T13:06:35.448Z,27.06
2018-05-29T13:09:02.992Z,26.75
2018-05-29T13:11:30.516Z,26.75
2018-05-29T13:13:58.065Z,26.72
2018-05-29T13:16:25.580Z,26.38
2018-05-29T13:18:53.129Z,26.11
2018-05-29T13:21:20.649Z,26.03
2018-05-29T13:23:48.179Z,25.82
2018-05-29T13:26:15.733Z,25.71
2018-05-29T13:28:43.303Z,25.32
2018-05-29T13:31:11.141Z,25.30
2018-05-29T13:33:38.665Z,25.19
2018-05-29T13:36:06.193Z,25.25
2018-05-29T13:38:33.732Z,25.02
2018-05-29T13:41:01.253Z,24.80
2018-05-29T13:43:28.937Z,24.84
2018-05-29T13:45:56.464Z,24.65
2018-05-29T13:48:24.011Z,24.64
2018-05-29T13:50:51.560Z,24.66
2018-05-29T13:53:19.087Z,24.50
2018-05-29T13:55:46.660Z,23.81
2018-05-29T13:58:14.221Z,23.98
2018-05-29T14:00:41.747Z,23.99
2018-05-29T14:03:09.317Z,24.08
2018-05-29T14:05:36.831Z,24.11
2018-05-29T14:08:04.553Z,24.21
2018-05-29T14:10:32.084Z,24.25
2018-05-29T14:12:59.613Z,24.27
2018-05-29T14:15:27.148Z,24.24
2018-05-29T14:17:54.733Z,24.25
2018-05-29T14:20:23.369Z,24.24
2018-05-29T14:22:51.234Z,24.28
2018-05-29T14:25:19.221Z,24.25
2018-05-29T14:27:46.917Z,24.31
2018-05-29T14:30:14.629Z,24.30
2018-05-29T14:32:42.647Z,24.31
2018-05-29T14:35:10.931Z,24.30
2018-05-29T14:37:38.584Z,24.21
2018-05-29T14:40:06.152Z,24.02
2018-05-29T14:42:33.962Z,23.82
2018-05-29T14:45:01.808Z,23.57
2018-05-29T14:47:30.290Z,23.56
2018-05-29T14:49:57.870Z,23.59
2018-05-29T14:52:26.849Z,23.62
2018-05-29T14:54:54.524Z,23.69
2018-05-29T14:57:22.805Z,23.68
2018-05-29T14:59:50.348Z,23.49
2018-05-29T15:02:18.227Z,22.89
2018-05-29T15:04:46.092Z,23.06
2018-05-29T15:07:13.700Z,23.05
2018-05-29T15:09:42.362Z,23.00
2018-05-29T15:12:10.204Z,23.09
2018-05-29T15:14:38.010Z,23.52
2018-05-29T15:17:05.732Z,23.59
2018-05-29T15:19:33.303Z,23.76
2018-05-29T15:22:00.954Z,23.88
2018-05-29T15:24:28.620Z,23.97
2018-05-29T15:26:56.481Z,23.96
2018-05-29T15:29:24.348Z,23.91
2018-05-29T15:31:52.523Z,24.00
2018-05-29T15:34:20.119Z,24.10
2018-05-29T15:36:48.049Z,24.22
2018-05-29T15:39:15.604Z,24.24
2018-05-29T15:41:44.293Z,24.39
2018-05-29T15:44:11.882Z,24.29
2018-05-29T15:46:39.520Z,24.23
2018-05-29T15:49:07.044Z,24.15
2018-05-29T15:51:34.572Z,24.24
2018-05-29T15:54:02.152Z,24.33
2018-05-29T15:56:29.857Z,24.30
2018-05-29T15:58:57.807Z,24.57
2018-05-29T16:01:25.404Z,24.83
2018-05-29T16:03:53.058Z,25.04
2018-05-29T16:06:20.620Z,25.05
2018-05-29T16:08:49.102Z,24.80
2018-05-29T16:11:16.856Z,24.80
2018-05-29T16:13:44.417Z,24.90
2018-05-29T16:16:12.165Z,24.69
2018-05-29T16:18:39.742Z,25.18
2018-05-29T16:21:07.396Z,25.32
2018-05-29T16:23:34.988Z,25.01
2018-05-29T16:26:02.720Z,25.27
2018-05-29T16:28:30.466Z,25.24
2018-05-29T16:30:58.250Z,25.35
2018-05-29T16:33:26.115Z,25.34
2018-05-29T16:35:54.085Z,25.44
2018-05-29T16:38:21.850Z,25.55
2018-05-29T16:40:49.478Z,25.60
2018-05-29T16:43:17.173Z,25.65
2018-05-29T16:45:44.728Z,25.72
2018-05-29T16:48:12.702Z,25.62
2018-05-29T16:50:40.365Z,25.34
2018-05-29T16:53:08.234Z,25.14
2018-05-29T16:55:35.956Z,24.67
2018-05-29T16:58:03.639Z,25.06
2018-05-29T17:00:31.265Z,25.21
2018-05-29T17:02:59.003Z,25.25
2018-05-29T17:05:26.556Z,25.17
2018-05-29T17:07:54.258Z,25.10
2018-05-29T17:10:21.793Z,25.21
2018-05-29T17:12:49.602Z,25.21
2018-05-29T17:15:17.222Z,25.32
2018-05-29T17:17:44.841Z,25.37
2018-05-29T17:20:12.459Z,25.27
2018-05-29T17:22:40.008Z,25.21
2018-05-29T17:25:07.834Z,25.26
2018-05-29T17:27:35.596Z,25.21
2018-05-29T17:30:03.142Z,25.39
2018-05-29T17:32:30.821Z,25.41
2018-05-29T17:34:58.684Z,25.38
2018-05-29T17:37:26.449Z,25.32
2018-05-29T17:39:54.000Z,25.19
2018-05-29T17:42:22.083Z,25.38
2018-05-29T17:44:49.706Z,25.33
2018-05-29T17:47:17.244Z,25.39
2018-05-29T17:49:44.954Z,25.29
2018-05-29T17:52:12.478Z,25.31
2018-05-29T17:54:40.069Z,25.36
2018-05-29T17:57:07.923Z,25.39
2018-05-29T17:59:35.670Z,25.28
2018-05-29T18:02:03.533Z,25.02
2018-05-29T18:04:31.056Z,25.03
2018-05-29T18:06:58.669Z,25.03
2018-05-29T18:09:26.360Z,25.01
2018-05-29T18:11:53.897Z,24.82
2018-05-29T18:14:21.688Z,24.91
2018-05-29T18:16:49.311Z,24.86
2018-05-29T18:19:17.316Z,24.61
2018-05-29T18:21:44.909Z,24.65
2018-05-29T18:24:13.074Z,24.53
2018-05-29T18:26:41.216Z,24.23
2018-05-29T18:29:08.760Z,24.33
2018-05-29T18:31:36.321Z,24.23
2018-05-29T18:34:04.924Z,24.20
2018-05-29T18:36:32.502Z,24.12
2018-05-29T18:39:00.114Z,24.15
2018-05-29T18:41:27.661Z,24.12
2018-05-29T18:43:55.189Z,23.96
2018-05-29T18:46:22.900Z,23.86
2018-05-29T18:48:50.491Z,23.99
2018-05-29T18:51:18.116Z,24.17
2018-05-29T18:53:45.808Z,23.87
2018-05-29T18:56:13.572Z,23.84
2018-05-29T18:58:41.117Z,23.74
2018-05-29T19:01:08.717Z,23.67
2018-05-29T19:03:36.693Z,23.55
2018-05-29T19:06:04.422Z,23.50
2018-05-29T19:08:32.203Z,23.43
2018-05-29T19:11:00.166Z,23.36
2018-05-29T19:13:27.925Z,23.27
2018-05-29T19:15:55.534Z,23.20
2018-05-29T19:18:23.316Z,23.19
2018-05-29T19:20:50.854Z,23.13
2018-05-29T19:23:18.589Z,23.04
2018-05-29T19:25:46.639Z,22.97
2018-05-29T19:28:14.914Z,22.91
2018-05-29T19:30:42.534Z,22.85
2018-05-29T19:33:10.341Z,22.80
2018-05-29T19:35:38.109Z,22.72
2018-05-29T19:38:05.974Z,22.63
2018-05-29T19:40:34.043Z,22.57
2018-05-29T19:43:01.804Z,22.50
2018-05-29T19:45:29.572Z,22.46
2018-05-29T19:47:57.440Z,22.40
2018-05-29T19:50:25.203Z,22.26
2018-05-29T19:52:52.968Z,22.32
2018-05-29T19:55:20.629Z,22.23
2018-05-29T19:57:48.497Z,22.15
2018-05-29T20:00:16.464Z,22.06
2018-05-29T20:02:44.256Z,22.01
2018-05-29T20:05:12.352Z,21.98
2018-05-29T20:07:40.679Z,21.95
2018-05-29T20:10:08.548Z,21.86
2018-05-29T20:12:36.512Z,21.88
2018-05-29T20:15:04.380Z,21.87
2018-05-29T20:17:33.389Z,21.76
2018-05-29T20:20:01.373Z,21.62
2018-05-29T20:22:29.311Z,21.64
2018-05-29T20:24:57.178Z,21.63
2018-05-29T20:27:25.430Z,21.60
2018-05-29T20:29:53.629Z,21.57
2018-05-29T20:32:21.497Z,21.44
2018-05-29T20:34:49.807Z,21.45
2018-05-29T20:37:17.744Z,21.43
2018-05-29T20:39:45.610Z,21.37
2018-05-29T20:42:13.882Z,21.33
2018-05-29T20:44:41.749Z,21.28
2018-05-29T20:47:09.616Z,21.28
2018-05-29T20:49:37.627Z,21.18
2018-05-29T20:52:05.255Z,21.12
2018-05-29T20:54:33.102Z,21.07
2018-05-29T20:57:00.880Z,21.09
2018-05-29T20:59:28.539Z,21.10
2018-05-29T21:01:56.306Z,21.11
2018-05-29T21:04:23.926Z,21.06
2018-05-29T21:06:51.628Z,21.02
2018-05-29T21:09:19.495Z,21.05
2018-05-29T21:11:47.101Z,21.26
2018-05-29T21:14:14.919Z,21.13
2018-05-29T21:16:42.456Z,20.92
2018-05-29T21:19:10.332Z,20.79
2018-05-29T21:21:37.970Z,20.83
2018-05-29T21:24:05.575Z,20.70
2018-05-29T21:26:33.331Z,20.56
2018-05-29T21:29:00.916Z,20.63
2018-05-29T21:31:28.877Z,20.50
2018-05-29T21:33:56.417Z,20.33
2018-05-29T21:36:23.953Z,20.61
2018-05-29T21:38:51.512Z,20.62
2018-05-29T21:41:19.042Z,20.59
2018-05-29T21:43:47.274Z,20.42
2018-05-29T21:46:14.889Z,20.48
2018-05-29T21:48:42.422Z,20.33
2018-05-29T21:51:09.988Z,20.32
2018-05-29T21:53:37.546Z,20.35
2018-05-29T21:56:05.260Z,20.26
2018-05-29T21:58:32.786Z,20.26
2018-05-29T22:01:00.336Z,20.08
2018-05-29T22:03:28.400Z,20.04
2018-05-29T22:05:55.936Z,19.95
2018-05-29T22:08:23.671Z,19.92
2018-05-29T22:10:51.197Z,19.99
2018-05-29T22:13:18.726Z,19.97
2018-05-29T22:15:46.957Z,20.03
2018-05-29T22:18:14.524Z,19.97
2018-05-29T22:20:42.089Z,19.87
2018-05-29T22:23:09.642Z,19.92
2018-05-29T22:25:37.384Z,19.82
2018-05-29T22:28:04.972Z,19.81
2018-05-29T22:30:32.964Z,19.76
2018-05-29T22:33:00.692Z,19.71
2018-05-29T22:35:28.329Z,19.67
2018-05-29T22:37:55.865Z,19.71
2018-05-29T22:40:23.417Z,19.72
2018-05-29T22:42:50.984Z,19.68
2018-05-29T22:45:19.943Z,19.66
2018-05-29T22:47:47.471Z,19.66
2018-05-29T22:50:15.000Z,19.54
2018-05-29T22:52:42.581Z,19.57
2018-05-29T22:55:10.136Z,19.55
2018-05-29T22:57:37.825Z,19.58
2018-05-29T23:00:05.362Z,19.59
2018-05-29T23:02:32.893Z,19.57
2018-05-29T23:05:00.831Z,19.57
2018-05-29T23:07:28.381Z,19.50
2018-05-29T23:09:55.948Z,19.35
2018-05-29T23:12:23.501Z,19.29
2018-05-29T23:14:51.580Z,19.21
2018-05-29T23:17:19.149Z,19.17
2018-05-29T23:19:46.672Z,19.13
2018-05-29T23:22:14.952Z,19.26
2018-05-29T23:24:42.502Z,19.25
2018-05-29T23:27:10.036Z,19.22
2018-05-29T23:29:37.593Z,19.28
2018-05-29T23:32:05.114Z,19.30
2018-05-29T23:34:33.181Z,19.31
2018-05-29T23:37:00.702Z,19.18
2018-05-29T23:39:28.232Z,19.19
2018-05-29T23:41:55.857Z,19.16
2018-05-29T23:44:23.396Z,19.22
2018-05-29T23:46:52.000Z,19.21
2018-05-29T23:49:19.529Z,19.17
2018-05-29T23:51:47.069Z,19.13
2018-05-29T23:54:14.633Z,19.08
2018-05-29T23:56:42.169Z,19.10
2018-05-29T23:59:09.979Z,19.02
